createdAt,value
2023-05-10T00:02:08.563Z,12.20
2023-05-10T00:05:50.416Z,12.20
2023-05-10T00:09:32.299Z,12.10
2023-05-10T00:13:14.335Z,12.10
2023-05-10T00:16:56.224Z,12.10
2023-05-10T00:20:38.113Z,12.00
2023-05-10T00:24:20.046Z,12.00
2023-05-10T00:28:02.796Z,12.00
2023-05-10T00:31:44.668Z,12.00
2023-05-10T00:35:27.069Z,11.90
2023-05-10T00:39:08.967Z,11.90
2023-05-10T00:42:50.846Z,11.90
2023-05-10T00:46:33.078Z,11.90
2023-05-10T00:50:15.963Z,11.90
2023-05-10T00:53:58.364Z,11.80
2023-05-10T00:57:40.669Z,11.90
2023-05-10T01:01:22.902Z,11.90
2023-05-10T01:05:05.251Z,11.80
2023-05-10T01:08:47.511Z,11.80
2023-05-10T01:12:29.486Z,11.80
2023-05-10T01:16:11.523Z,11.80
2023-05-10T01:19:53.521Z,11.70
2023-05-10T01:24:01.394Z,11.70
2023-05-10T01:27:45.974Z,11.70
2023-05-10T01:31:58.674Z,11.70
2023-05-10T01:35:55.511Z,11.70
2023-05-10T01:39:52.352Z,11.60
2023-05-10T01:43:44.035Z,11.60
2023-05-10T01:47:45.649Z,11.60
2023-05-10T01:51:38.557Z,11.60
2023-05-10T01:55:22.556Z,11.50
2023-05-10T01:59:09.852Z,11.50
2023-05-10T02:02:52.972Z,11.50
2023-05-10T02:06:36.117Z,11.50
2023-05-10T02:10:19.239Z,11.40
2023-05-10T02:14:02.368Z,11.40
2023-05-10T02:17:46.509Z,11.40
2023-05-10T02:21:30.568Z,11.40
2023-05-10T02:25:14.332Z,11.40
2023-05-10T02:28:57.207Z,11.30
2023-05-10T02:32:39.846Z,11.30
2023-05-10T02:36:23.874Z,11.30
2023-05-10T02:40:07.179Z,11.20
2023-05-10T02:43:53.976Z,11.20
2023-05-10T02:47:36.009Z,11.20
2023-05-10T02:51:20.849Z,11.10
2023-05-10T02:55:06.314Z,11.10
2023-05-10T02:58:48.294Z,11.10
2023-05-10T03:02:31.542Z,11.10
2023-05-10T03:06:13.528Z,11.10
2023-05-10T03:09:55.561Z,11.10
2023-05-10T03:13:50.023Z,11.10
2023-05-10T03:17:37.744Z,11.10
2023-05-10T03:21:21.586Z,11.10
2023-05-10T03:25:07.071Z,11.00
2023-05-10T03:28:50.650Z,11.00
2023-05-10T03:32:35.395Z,11.00
2023-05-10T03:36:17.457Z,11.10
2023-05-10T03:39:59.267Z,11.00
2023-05-10T03:43:42.191Z,11.10
2023-05-10T03:47:24.182Z,11.00
2023-05-10T03:51:06.094Z,11.00
2023-05-10T03:54:47.887Z,11.10
2023-05-10T03:58:29.793Z,11.10
2023-05-10T04:02:11.689Z,11.10
2023-05-10T04:06:03.514Z,11.10
2023-05-10T04:09:45.466Z,11.10
2023-05-10T04:13:27.733Z,11.10
2023-05-10T04:17:09.639Z,11.20
2023-05-10T04:20:51.683Z,11.20
2023-05-10T04:24:33.473Z,11.20
2023-05-10T04:28:15.433Z,11.20
2023-05-10T04:31:57.654Z,11.20
2023-05-10T04:35:41.050Z,11.20
2023-05-10T04:39:22.902Z,11.20
2023-05-10T04:43:04.741Z,11.10
2023-05-10T04:46:47.272Z,11.10
2023-05-10T04:50:29.231Z,11.10
2023-05-10T04:54:11.330Z,11.10
2023-05-10T04:57:53.461Z,11.20
2023-05-10T05:01:35.565Z,11.20
2023-05-10T05:05:17.428Z,11.20
2023-05-10T05:08:59.217Z,11.20
2023-05-10T05:12:41.112Z,11.30
2023-05-10T05:16:22.976Z,11.40
2023-05-10T05:20:05.579Z,11.50
2023-05-10T05:23:47.651Z,11.60
2023-05-10T05:27:29.488Z,11.70
2023-05-10T05:31:11.431Z,11.80
2023-05-10T05:34:53.406Z,11.80
2023-05-10T05:38:35.256Z,11.90
2023-05-10T05:42:18.705Z,11.90
2023-05-10T05:46:00.747Z,11.90
2023-05-10T05:49:42.607Z,11.90
2023-05-10T05:53:24.932Z,11.90
2023-05-10T05:57:06.947Z,11.90
2023-05-10T06:00:49.043Z,11.90
2023-05-10T06:04:30.974Z,12.00
2023-05-10T06:08:12.890Z,12.10
2023-05-10T06:11:54.699Z,12.20
2023-05-10T06:15:36.535Z,12.40
2023-05-10T06:19:18.445Z,12.50
2023-05-10T06:23:00.486Z,12.60
2023-05-10T06:26:42.291Z,12.80
2023-05-10T06:30:28.330Z,12.80
2023-05-10T06:34:10.283Z,12.90
2023-05-10T06:37:52.486Z,12.90
2023-05-10T06:41:34.361Z,13.00
2023-05-10T06:45:16.684Z,13.20
2023-05-10T06:48:58.899Z,13.30
2023-05-10T06:52:40.787Z,13.40
2023-05-10T06:56:22.758Z,13.50
2023-05-10T07:00:05.850Z,13.60
2023-05-10T07:03:47.849Z,13.60
2023-05-10T07:07:29.893Z,13.70
2023-05-10T07:11:11.787Z,13.70
2023-05-10T07:14:53.580Z,13.80
2023-05-10T07:18:35.470Z,13.80
2023-05-10T07:22:17.934Z,13.80
2023-05-10T07:26:00.428Z,13.80
2023-05-10T07:29:42.252Z,13.90
2023-05-10T07:33:24.079Z,14.00
2023-05-10T07:37:07.213Z,14.20
2023-05-10T07:40:49.024Z,14.30
2023-05-10T07:44:30.923Z,14.40
2023-05-10T07:48:12.853Z,14.40
2023-05-10T07:51:54.677Z,14.50
2023-05-10T07:55:36.492Z,14.70
2023-05-10T07:59:18.956Z,14.80
2023-05-10T08:03:01.122Z,14.90
2023-05-10T08:06:43.286Z,14.90
2023-05-10T08:10:25.719Z,14.90
2023-05-10T08:14:07.528Z,14.90
2023-05-10T08:17:49.398Z,14.90
2023-05-10T08:21:32.289Z,14.90
2023-05-10T08:25:14.150Z,15.00
2023-05-10T08:28:55.976Z,15.00
2023-05-10T08:32:39.254Z,15.20
2023-05-10T08:36:22.815Z,15.30
2023-05-10T08:40:05.204Z,15.40
2023-05-10T08:43:47.374Z,15.50
2023-05-10T08:47:30.193Z,15.70
2023-05-10T08:51:16.041Z,15.80
2023-05-10T08:54:58.230Z,15.80
2023-05-10T08:58:40.255Z,15.80
2023-05-10T09:02:23.335Z,15.70
2023-05-10T09:06:06.060Z,15.70
2023-05-10T09:09:48.267Z,15.80
2023-05-10T09:13:30.932Z,15.90
2023-05-10T09:17:13.241Z,15.90
2023-05-10T09:20:55.733Z,16.00
2023-05-10T09:24:43.353Z,16.20
2023-05-10T09:28:25.162Z,16.40
2023-05-10T09:32:07.101Z,16.70
2023-05-10T09:35:53.214Z,17.00
2023-05-10T09:39:37.031Z,17.30
2023-05-10T09:43:18.835Z,17.70
2023-05-10T09:47:04.428Z,17.90
2023-05-10T09:50:46.233Z,18.00
2023-05-10T09:54:28.132Z,17.80
2023-05-10T09:58:13.175Z,17.80
2023-05-10T10:01:58.956Z,17.80
2023-05-10T10:05:46.521Z,17.80
2023-05-10T10:09:29.049Z,18.00
2023-05-10T10:13:10.969Z,18.30
2023-05-10T10:17:06.682Z,18.50
2023-05-10T10:20:49.122Z,18.50
2023-05-10T10:24:31.164Z,18.40
2023-05-10T10:29:00.524Z,18.20
2023-05-10T10:33:10.180Z,18.10
2023-05-10T10:36:59.028Z,18.10
2023-05-10T10:40:41.277Z,18.30
2023-05-10T10:44:26.187Z,18.50
2023-05-10T10:48:24.644Z,18.80
2023-05-10T10:52:30.909Z,19.20
2023-05-10T10:56:16.201Z,19.80
2023-05-10T11:00:21.358Z,20.40
2023-05-10T11:04:06.341Z,20.70
2023-05-10T11:07:58.950Z,20.80
2023-05-10T11:12:01.264Z,21.50
2023-05-10T11:15:53.181Z,22.60
2023-05-10T11:19:35.004Z,23.60
2023-05-10T11:23:18.723Z,24.20
2023-05-10T11:27:01.896Z,24.10
2023-05-10T11:30:45.438Z,24.30
2023-05-10T11:34:30.598Z,24.40
2023-05-10T11:38:13.855Z,24.90
2023-05-10T11:41:56.674Z,25.40
2023-05-10T11:45:39.082Z,25.80
2023-05-10T11:49:24.057Z,26.50
2023-05-10T11:53:06.361Z,27.10
2023-05-10T11:56:48.212Z,27.60
2023-05-10T12:00:30.790Z,28.30
2023-05-10T12:04:13.199Z,29.00
2023-05-10T12:08:15.420Z,29.30
2023-05-10T12:11:58.095Z,29.50
2023-05-10T12:15:40.025Z,30.10
2023-05-10T12:19:22.464Z,30.30
2023-05-10T12:23:04.816Z,29.60
2023-05-10T12:26:47.073Z,28.60
2023-05-10T12:30:31.026Z,27.90
2023-05-10T12:34:23.310Z,26.70
2023-05-10T12:38:27.981Z,25.70
2023-05-10T12:42:10.838Z,25.00
2023-05-10T12:45:52.777Z,24.50
2023-05-10T12:49:35.186Z,24.00
2023-05-10T12:53:17.739Z,23.90
2023-05-10T12:56:59.557Z,23.90
2023-05-10T13:00:41.572Z,24.00
2023-05-10T13:04:23.404Z,23.80
2023-05-10T13:08:05.831Z,23.70
2023-05-10T13:11:49.059Z,23.50
2023-05-10T13:15:30.953Z,23.60
2023-05-10T13:19:13.681Z,23.90
2023-05-10T13:22:55.646Z,24.20
2023-05-10T13:26:38.097Z,24.90
2023-05-10T13:30:19.994Z,25.80
2023-05-10T13:34:02.057Z,26.60
2023-05-10T13:37:43.933Z,27.40
2023-05-10T13:41:31.616Z,28.40
2023-05-10T13:45:14.209Z,29.00
2023-05-10T13:48:56.186Z,29.50
2023-05-10T13:52:38.377Z,29.70
2023-05-10T13:56:20.183Z,29.90
2023-05-10T14:00:02.076Z,30.00
2023-05-10T14:03:44.198Z,30.00
2023-05-10T14:07:26.059Z,29.90
2023-05-10T14:11:08.473Z,29.80
2023-05-10T14:14:50.402Z,29.50
2023-05-10T14:18:32.248Z,29.20
2023-05-10T14:22:14.162Z,28.80
2023-05-10T14:25:56.235Z,27.80
2023-05-10T14:29:38.312Z,26.80
2023-05-10T14:33:20.389Z,26.10
2023-05-10T14:37:02.395Z,25.40
2023-05-10T14:40:44.192Z,24.90
2023-05-10T14:44:26.087Z,24.40
2023-05-10T14:48:12.124Z,23.80
2023-05-10T14:51:54.098Z,23.40
2023-05-10T14:55:36.251Z,23.10
2023-05-10T14:59:18.099Z,22.90
2023-05-10T15:03:00.675Z,22.80
2023-05-10T15:06:43.009Z,22.50
2023-05-10T15:10:24.856Z,22.30
2023-05-10T15:14:07.094Z,22.20
2023-05-10T15:17:49.470Z,22.00
2023-05-10T15:21:36.161Z,21.80
2023-05-10T15:25:18.452Z,21.60
2023-05-10T15:29:00.638Z,21.40
2023-05-10T15:32:43.839Z,21.30
2023-05-10T15:36:26.064Z,21.30
2023-05-10T15:40:08.276Z,21.10
2023-05-10T15:43:50.103Z,21.00
2023-05-10T15:47:32.281Z,21.00
2023-05-10T15:51:14.186Z,20.90
2023-05-10T15:54:56.036Z,20.80
2023-05-10T15:58:39.238Z,20.70
2023-05-10T16:02:22.579Z,20.60
2023-05-10T16:06:05.143Z,20.40
2023-05-10T16:09:46.996Z,20.30
2023-05-10T16:13:29.883Z,20.10
2023-05-10T16:17:12.346Z,20.10
2023-05-10T16:20:55.239Z,20.00
2023-05-10T16:24:37.849Z,19.90
2023-05-10T16:28:23.123Z,19.90
2023-05-10T16:32:06.093Z,19.90
2023-05-10T16:35:48.826Z,19.80
2023-05-10T16:39:31.983Z,19.80
2023-05-10T16:43:17.119Z,19.80
2023-05-10T16:47:03.645Z,19.70
2023-05-10T16:50:48.373Z,19.70
2023-05-10T16:54:31.874Z,19.80
2023-05-10T16:58:15.035Z,19.70
2023-05-10T17:01:57.993Z,19.80
2023-05-10T17:05:41.290Z,19.70
2023-05-10T17:09:23.765Z,19.60
2023-05-10T17:13:08.014Z,19.60
2023-05-10T17:16:54.512Z,19.40
2023-05-10T17:20:37.266Z,19.20
2023-05-10T17:24:19.787Z,19.20
2023-05-10T17:28:02.478Z,19.10
2023-05-10T17:31:46.862Z,19.00
2023-05-10T17:35:31.671Z,18.80
2023-05-10T17:39:14.411Z,18.80
2023-05-10T17:42:57.461Z,18.80
2023-05-10T17:46:40.450Z,18.80
2023-05-10T17:50:23.214Z,18.80
2023-05-10T17:54:06.049Z,18.70
2023-05-10T17:57:49.885Z,18.70
2023-05-10T18:01:34.035Z,18.60
2023-05-10T18:05:17.239Z,18.40
2023-05-10T18:09:00.268Z,18.20
2023-05-10T18:12:42.707Z,18.10
2023-05-10T18:16:25.034Z,18.10
2023-05-10T18:20:08.473Z,18.00
2023-05-10T18:23:51.000Z,17.90
2023-05-10T18:27:33.802Z,17.80
2023-05-10T18:31:16.503Z,17.80
2023-05-10T18:34:58.632Z,17.70
2023-05-10T18:38:41.873Z,17.70
2023-05-10T18:42:24.585Z,17.60
2023-05-10T18:46:07.171Z,17.50
2023-05-10T18:49:49.695Z,17.30
2023-05-10T18:53:35.870Z,17.20
2023-05-10T18:57:18.611Z,17.10
2023-05-10T19:01:01.260Z,16.90
2023-05-10T19:04:43.938Z,16.80
2023-05-10T19:08:26.594Z,16.70
2023-05-10T19:12:09.403Z,16.60
2023-05-10T19:16:23.237Z,16.60
2023-05-10T19:20:10.370Z,16.40
2023-05-10T19:23:53.767Z,16.30
2023-05-10T19:27:36.554Z,16.10
2023-05-10T19:31:19.757Z,16.00
2023-05-10T19:35:02.495Z,15.90
2023-05-10T19:38:45.088Z,15.80
2023-05-10T19:42:27.596Z,15.60
2023-05-10T19:46:10.397Z,15.60
2023-05-10T19:49:54.701Z,15.40
2023-05-10T19:53:37.505Z,15.30
2023-05-10T19:57:24.065Z,15.20
2023-05-10T20:01:12.878Z,15.10
2023-05-10T20:04:55.606Z,15.10
2023-05-10T20:08:39.197Z,15.00
2023-05-10T20:12:22.053Z,15.00
2023-05-10T20:16:06.543Z,14.90
2023-05-10T20:19:49.278Z,14.80
2023-05-10T20:23:32.114Z,14.80
2023-05-10T20:27:14.884Z,14.70
2023-05-10T20:30:58.400Z,14.60
2023-05-10T20:34:45.395Z,14.60
2023-05-10T20:38:28.562Z,14.60
2023-05-10T20:42:11.166Z,14.50
2023-05-10T20:45:54.411Z,14.50
2023-05-10T20:49:38.381Z,14.40
2023-05-10T20:53:21.009Z,14.40
2023-05-10T20:57:03.602Z,14.30
2023-05-10T21:00:46.188Z,14.20
2023-05-10T21:04:28.947Z,14.20
2023-05-10T21:08:11.619Z,14.20
2023-05-10T21:11:54.222Z,14.20
2023-05-10T21:15:36.908Z,14.10
2023-05-10T21:19:19.953Z,14.10
2023-05-10T21:23:02.659Z,14.20
2023-05-10T21:26:45.084Z,14.00
2023-05-10T21:30:27.551Z,14.10
2023-05-10T21:34:09.730Z,14.10
2023-05-10T21:37:51.585Z,14.00
2023-05-10T21:41:33.508Z,14.10
2023-05-10T21:45:17.137Z,14.00
2023-05-10T21:48:58.948Z,13.90
2023-05-10T21:52:40.876Z,13.80
2023-05-10T21:56:23.109Z,13.80
2023-05-10T22:00:06.965Z,13.70
2023-05-10T22:03:48.845Z,13.70
2023-05-10T22:07:31.915Z,13.60
2023-05-10T22:11:13.744Z,13.50
2023-05-10T22:15:09.391Z,13.50
2023-05-10T22:18:54.214Z,13.50
2023-05-10T22:22:36.783Z,13.50
2023-05-10T22:26:18.675Z,13.50
2023-05-10T22:30:00.460Z,13.50
2023-05-10T22:33:42.375Z,13.60
2023-05-10T22:37:24.231Z,13.60
2023-05-10T22:41:06.639Z,13.60
2023-05-10T22:44:48.423Z,13.60
2023-05-10T22:48:30.333Z,13.60
2023-05-10T22:52:12.159Z,13.60
2023-05-10T22:55:54.061Z,13.60
2023-05-10T22:59:35.897Z,13.60
2023-05-10T23:03:18.156Z,13.60
2023-05-10T23:07:00.017Z,13.50
2023-05-10T23:10:42.062Z,13.50
2023-05-10T23:14:24.022Z,13.40
2023-05-10T23:18:06.243Z,13.40
2023-05-10T23:21:48.030Z,13.40
2023-05-10T23:25:29.887Z,13.30
2023-05-10T23:29:12.025Z,13.30
2023-05-10T23:32:53.890Z,13.30
2023-05-10T23:36:35.682Z,13.20
2023-05-10T23:40:17.823Z,13.20
2023-05-10T23:44:00.269Z,13.10
2023-05-10T23:47:42.164Z,13.10
2023-05-10T23:51:24.107Z,13.00
2023-05-10T23:55:06.369Z,12.90
2023-05-10T23:58:48.154Z,12.90
